Time;durP1;ratioP1;P1;durP2;ratioP2;P2;SDS_P1;SDS_P2;PMS_P1;PMS_P2;Temp;Humidity;BMP_temperature;BMP_pressure;BME280_temperature;BME280_humidity;BME280_pressure;Samples;Min_cycle;Max_cycle;Signal;HPM_P1;HPM_P2
2021/12/21 00:00:55;;;;;;;23.08;8.63;;;;;;;8.33;47.03;102929.34;4991851;28;20031;-62
2021/12/21 00:03:20;;;;;;;24.40;8.32;;;;;;;8.09;47.97;102940.25;4990943;28;20027;-62
2021/12/21 00:05:46;;;;;;;18.77;7.95;;;;;;;8.18;47.79;102938.00;4991574;28;20027;-64
2021/12/21 00:08:13;;;;;;;22.77;8.32;;;;;;;8.35;47.15;102949.06;4991093;28;20022;-62
2021/12/21 00:10:43;;;;;;;18.00;8.13;;;;;;;8.36;47.02;102943.34;4974545;28;20026;-62
2021/12/21 00:13:21;;;;;;;17.40;8.02;;;;;;;8.37;46.70;102941.47;4991532;28;20039;-64
2021/12/21 00:26:05;;;;;;;20.10;7.65;;;;;;;8.41;46.62;102948.13;4995175;28;20065;-65
2021/12/21 00:28:35;;;;;;;17.75;7.65;;;;;;;8.20;47.02;102956.91;4994441;28;20027;-64
2021/12/21 00:31:01;;;;;;;19.73;7.35;;;;;;;8.04;47.24;102942.84;4995162;28;20035;-63
2021/12/21 00:33:26;;;;;;;21.45;7.55;;;;;;;7.91;47.70;102937.59;4994431;28;20074;-61
2021/12/21 00:35:52;;;;;;;22.80;8.10;;;;;;;8.01;47.53;102939.75;4977740;28;20062;-62
2021/12/21 00:38:17;;;;;;;19.15;7.30;;;;;;;8.11;47.34;102927.19;4977174;28;20038;-64
2021/12/21 00:40:42;;;;;;;15.77;7.65;;;;;;;8.01;47.45;102924.19;4977747;28;20086;-64
2021/12/21 00:43:08;;;;;;;20.95;8.07;;;;;;;7.78;48.06;102923.09;4977386;28;20039;-62
2021/12/21 00:45:33;;;;;;;17.45;7.82;;;;;;;7.84;47.91;102926.75;4994552;28;20038;-62
2021/12/21 00:47:58;;;;;;;19.73;7.78;;;;;;;7.69;49.60;102929.13;4977631;28;20531;-63
2021/12/21 00:50:24;;;;;;;15.32;7.63;;;;;;;7.88;48.51;102922.50;4994127;28;20030;-63
2021/12/21 00:52:53;;;;;;;20.75;8.27;;;;;;;8.02;47.88;102914.09;4994645;28;20103;-63
2021/12/21 00:55:19;;;;;;;21.33;8.35;;;;;;;7.86;48.55;102921.06;4994137;28;20038;-64
2021/12/21 00:57:46;;;;;;;23.77;7.97;;;;;;;8.00;48.05;102914.31;4977434;28;20034;-63
2021/12/21 01:00:13;;;;;;;18.27;8.53;;;;;;;8.01;48.00;102918.72;4994357;28;20022;-63
2021/12/21 01:02:40;;;;;;;;;;;;;;;8.32;47.20;102914.84;4994461;28;20030;-62
2021/12/21 01:05:13;;;;;;;20.77;7.85;;;;;;;8.31;47.31;102915.91;4976848;28;19922;-65
2021/12/21 01:07:43;;;;;;;23.83;8.40;;;;;;;8.17;47.76;102920.75;4976499;28;20031;-64
2021/12/21 01:13:13;;;;;;;23.52;8.18;;;;;;;7.97;47.97;102912.91;4979864;28;20064;-63
2021/12/21 01:16:00;;;;;;;20.52;8.38;;;;;;;8.03;47.58;102907.56;4953691;28;20024;-65
2021/12/21 01:18:34;;;;;;;20.52;8.48;;;;;;;8.08;47.05;102904.97;4949420;28;20046;-65
2021/12/21 01:21:08;;;;;;;22.27;8.23;;;;;;;8.05;47.36;102889.88;4961342;28;20057;-63
2021/12/21 01:26:36;;;;;;;25.63;9.18;;;;;;;7.98;47.26;102903.63;4978575;28;20030;-63
2021/12/21 01:36:58;;;;;;;20.15;8.10;;;;;;;7.92;46.90;102907.34;4993683;28;20031;-62
2021/12/21 01:50:27;;;;;;;19.27;7.63;;;;;;;8.08;46.14;102894.88;4965396;28;20041;-60
2021/12/21 01:52:52;;;;;;;18.25;8.10;;;;;;;8.07;46.66;102892.38;4976659;28;20090;-61
2021/12/21 01:55:18;;;;;;;20.02;7.88;;;;;;;8.08;46.67;102889.41;4993574;28;20031;-63
2021/12/21 01:57:43;;;;;;;23.10;8.35;;;;;;;8.09;46.65;102892.97;4993230;28;20043;-65
2021/12/21 02:00:10;;;;;;;23.27;7.25;;;;;;;8.18;46.04;102886.91;4960344;28;20039;-61
2021/12/21 02:02:36;;;;;;;21.47;8.23;;;;;;;8.05;46.46;102884.44;4993200;28;20027;-62
2021/12/21 02:05:01;;;;;;;20.63;8.10;;;;;;;7.93;46.85;102892.59;4993204;28;20041;-63
2021/12/21 02:07:27;;;;;;;24.67;8.77;;;;;;;7.96;47.07;102888.56;4993328;28;20066;-63
2021/12/21 02:09:52;;;;;;;18.35;7.78;;;;;;;8.00;46.67;102878.81;4992862;28;20037;-62
2021/12/21 02:12:21;;;;;;;20.25;7.97;;;;;;;7.89;46.74;102880.50;4975892;28;20038;-63
2021/12/21 02:14:53;;;;;;;15.68;7.18;;;;;;;7.97;46.63;102882.88;4992737;28;20019;-62
2021/12/21 02:22:47;;;;;;;19.10;7.85;;;;;;;7.71;46.75;102883.28;4992663;28;20058;-63
2021/12/21 02:30:36;;;;;;;20.02;7.60;;;;;;;7.44;47.06;102868.16;4992604;28;20035;-64
2021/12/21 02:33:02;;;;;;;19.08;7.40;;;;;;;7.42;47.51;102883.91;4993032;28;20053;-63
2021/12/21 02:35:27;;;;;;;14.68;6.80;;;;;;;7.55;46.58;102879.34;4959791;28;20094;-64
2021/12/21 02:37:52;;;;;;;20.10;8.35;;;;;;;7.27;48.08;102886.25;4992611;28;20030;-61
2021/12/21 02:40:18;;;;;;;17.85;7.85;;;;;;;7.31;48.51;102879.25;4975784;28;20041;-62
2021/12/21 02:42:43;;;;;;;20.40;7.72;;;;;;;7.40;47.69;102880.59;4992205;28;20058;-61
2021/12/21 02:45:11;;;;;;;21.33;7.30;;;;;;;7.43;47.60;102885.59;4959031;28;20039;-64
2021/12/21 02:47:36;;;;;;;;;;;;;;;7.54;47.16;102883.13;4992786;28;20058;-64
2021/12/21 02:50:03;;;;;;;19.10;7.50;;;;;;;7.31;47.23;102879.25;4975544;28;19918;-64
2021/12/21 02:52:28;;;;;;;20.25;8.20;;;;;;;7.24;47.61;102889.44;4975246;28;20074;-60
2021/12/21 02:54:53;;;;;;;18.40;8.05;;;;;;;7.20;47.74;102882.75;4975007;28;20090;-61
2021/12/21 02:57:19;;;;;;;19.83;8.23;;;;;;;7.21;47.31;102884.44;4975578;28;20027;-62
2021/12/21 02:59:44;;;;;;;17.67;7.70;;;;;;;7.19;47.25;102881.09;4992122;28;20030;-60
2021/12/21 03:02:09;;;;;;;22.33;7.90;;;;;;;7.17;46.90;102886.78;4992441;28;20031;-63
2021/12/21 03:04:35;;;;;;;24.13;8.18;;;;;;;7.13;47.15;102884.75;4975142;28;20039;-61
2021/12/21 03:09:38;;;;;;;15.80;7.93;;;;;;;6.85;47.82;102883.41;4992105;28;20034;-62
2021/12/21 03:12:12;;;;;;;18.48;7.75;;;;;;;6.96;47.30;102882.63;4977324;28;20090;-60
2021/12/21 03:14:38;;;;;;;22.02;7.55;;;;;;;6.96;47.40;102876.38;4992303;28;20037;-64
2021/12/21 03:17:05;;;;;;;23.80;7.67;;;;;;;6.78;48.23;102882.66;4992359;28;20040;-62
2021/12/21 03:19:30;;;;;;;19.60;7.93;;;;;;;6.50;48.46;102882.09;4992300;28;20320;-63
2021/12/21 03:21:56;;;;;;;18.20;6.78;;;;;;;6.45;48.79;102892.03;4958555;28;20110;-63
2021/12/21 03:24:21;;;;;;;23.85;7.82;;;;;;;6.57;48.62;102878.47;4975183;28;20090;-61
2021/12/21 03:26:47;;;;;;;18.30;7.72;;;;;;;6.55;48.49;102878.69;4974693;28;20038;-61
2021/12/21 03:29:13;;;;;;;15.48;6.93;;;;;;;6.75;48.23;102881.22;4975103;28;20031;-60
2021/12/21 03:31:38;;;;;;;25.60;8.00;;;;;;;6.87;48.14;102875.81;4992062;28;20031;-61
2021/12/21 03:34:04;;;;;;;17.48;7.43;;;;;;;6.74;48.40;102876.81;4974641;28;20027;-62
2021/12/21 03:36:30;;;;;;;16.83;7.47;;;;;;;6.65;48.35;102873.56;4975077;28;20070;-60
2021/12/21 03:39:06;;;;;;;20.38;8.30;;;;;;;6.59;48.54;102874.47;4974494;28;20038;-63
2021/12/21 03:41:35;;;;;;;17.73;7.35;;;;;;;6.61;48.61;102864.16;4992327;28;20170;-62
2021/12/21 03:44:02;;;;;;;18.73;7.30;;;;;;;6.71;48.00;102867.22;4974349;28;20031;-61
2021/12/21 03:46:31;;;;;;;18.67;7.47;;;;;;;6.83;47.86;102869.19;4992059;28;20113;-61
2021/12/21 03:48:56;;;;;;;17.15;7.60;;;;;;;6.73;47.93;102864.25;4974787;28;20106;-62
2021/12/21 03:51:22;;;;;;;18.55;7.30;;;;;;;6.58;48.04;102869.25;4991999;28;20033;-61
2021/12/21 03:53:49;;;;;;;15.43;6.95;;;;;;;6.50;48.05;102867.66;4991521;28;20051;-61
2021/12/21 03:56:35;;;;;;;17.40;7.25;;;;;;;6.39;48.20;102866.50;4994726;28;20456;-63
2021/12/21 03:59:01;;;;;;;19.60;7.47;;;;;;;6.42;48.65;102865.22;4981235;28;20099;-62
2021/12/21 04:01:26;;;;;;;20.73;7.80;;;;;;;6.41;48.47;102860.81;4978556;28;20049;-62
2021/12/21 04:03:51;;;;;;;18.48;7.88;;;;;;;6.38;48.78;102869.44;4994952;28;20023;-61
2021/12/21 04:06:17;;;;;;;17.67;7.47;;;;;;;6.52;47.84;102860.06;4995554;28;20031;-61
2021/12/21 04:08:42;;;;;;;19.30;7.85;;;;;;;6.21;48.48;102853.69;4978524;28;20042;-61
2021/12/21 04:11:07;;;;;;;17.77;7.70;;;;;;;6.40;48.44;102851.00;4977889;28;20031;-63
2021/12/21 04:13:33;;;;;;;17.35;7.45;;;;;;;6.13;49.52;102856.72;4995534;28;20027;-62
2021/12/21 04:16:01;;;;;;;19.65;8.52;;;;;;;6.07;49.85;102849.44;4994921;28;20027;-64
2021/12/21 04:18:26;;;;;;;17.45;7.55;;;;;;;6.00;50.28;102844.06;4978549;28;20030;-62
2021/12/21 04:20:52;;;;;;;20.83;7.47;;;;;;;5.86;50.96;102846.03;4994753;28;20053;-61
2021/12/21 04:23:18;;;;;;;17.98;7.97;;;;;;;5.93;50.64;102841.38;4962038;28;20094;-62
2021/12/21 04:25:44;;;;;;;24.52;8.95;;;;;;;5.64;51.98;102837.41;4995224;28;20539;-63
2021/12/21 04:28:09;;;;;;;21.80;8.30;;;;;;;5.18;53.58;102838.53;4977597;28;20034;-61
2021/12/21 04:30:35;;;;;;;18.65;8.30;;;;;;;5.46;52.65;102840.88;4995181;28;20412;-61
2021/12/21 04:33:00;;;;;;;18.52;7.78;;;;;;;6.06;50.93;102836.88;4994575;28;20058;-61
2021/12/21 04:35:26;;;;;;;18.30;7.57;;;;;;;6.38;49.80;102842.19;4978077;28;20144;-60
2021/12/21 04:37:58;;;;;;;18.38;7.93;;;;;;;6.04;50.42;102845.25;4977554;28;20042;-63
2021/12/21 04:40:37;;;;;;;18.58;8.45;;;;;;;6.31;49.55;102837.66;4994981;28;20023;-63
2021/12/21 04:43:02;;;;;;;17.95;8.25;;;;;;;6.40;49.55;102840.13;4979189;28;20039;-64
2021/12/21 04:45:28;;;;;;;18.23;8.13;;;;;;;6.13;50.54;102840.38;4994831;28;20027;-64
2021/12/21 04:47:53;;;;;;;20.95;8.10;;;;;;;6.27;49.50;102831.00;4994569;28;20542;-63
2021/12/21 04:50:19;;;;;;;23.92;9.05;;;;;;;6.23;49.99;102846.13;4977670;28;20090;-63
2021/12/21 04:52:44;;;;;;;19.85;8.48;;;;;;;6.14;50.10;102836.56;4994667;28;20023;-61
2021/12/21 04:55:09;;;;;;;18.17;9.00;;;;;;;6.27;49.88;102839.19;4994256;28;20038;-62
2021/12/21 04:57:35;;;;;;;16.55;8.65;;;;;;;5.93;51.52;102835.91;4994865;28;20043;-62
2021/12/21 05:00:00;;;;;;;19.77;8.07;;;;;;;6.02;50.83;102839.22;4994146;28;20041;-63
2021/12/21 05:02:26;;;;;;;20.15;9.05;;;;;;;6.24;50.57;102834.19;4977492;28;20030;-62
2021/12/21 05:04:51;;;;;;;22.63;9.05;;;;;;;6.17;50.18;102826.09;4994297;28;20061;-63
2021/12/21 05:07:22;;;;;;;23.23;9.10;;;;;;;6.30;49.47;102836.00;4976243;28;20098;-61
2021/12/21 05:09:55;;;;;;;19.13;8.38;;;;;;;6.04;50.13;102833.53;4977325;28;20039;-65
2021/12/21 05:12:21;;;;;;;22.73;8.90;;;;;;;5.60;51.12;102837.00;4962112;28;20035;-66
2021/12/21 05:14:46;;;;;;;24.05;9.05;;;;;;;5.72;51.10;102828.97;4977206;28;20034;-63
2021/12/21 05:17:12;;;;;;;17.27;8.70;;;;;;;5.73;50.76;102835.25;4960734;28;20066;-62
2021/12/21 05:19:37;;;;;;;22.80;8.95;;;;;;;5.52;51.24;102825.56;4994230;28;20042;-63
2021/12/21 05:22:03;;;;;;;22.20;8.63;;;;;;;5.26;52.29;102841.00;4993492;28;20047;-61
2021/12/21 05:24:28;;;;;;;21.35;9.43;;;;;;;5.56;51.34;102830.34;4976838;28;20030;-62
2021/12/21 05:26:53;;;;;;;19.90;9.15;;;;;;;5.79;50.45;102824.31;4976730;28;20043;-63
2021/12/21 05:29:20;;;;;;;18.02;9.30;;;;;;;5.72;50.76;102826.22;4993608;28;20035;-61
2021/12/21 05:31:45;;;;;;;17.25;9.02;;;;;;;5.48;51.75;102830.59;4977117;28;20037;-61
2021/12/21 05:34:10;;;;;;;19.10;8.90;;;;;;;5.85;50.63;102828.00;4976636;28;20058;-60
2021/12/21 05:36:36;;;;;;;18.77;9.57;;;;;;;5.80;50.50;102836.00;4976914;28;20039;-60
2021/12/21 05:39:05;;;;;;;19.55;9.18;;;;;;;5.77;50.17;102837.31;4976252;28;20041;-60
2021/12/21 05:41:47;;;;;;;22.02;9.68;;;;;;;6.03;49.35;102831.88;4993749;28;20027;-64
2021/12/21 05:44:14;;;;;;;24.52;9.30;;;;;;;6.17;49.17;102836.13;4978485;28;20031;-60
2021/12/21 05:46:39;;;;;;;31.15;10.70;;;;;;;5.96;49.09;102840.91;4993796;28;20058;-63
2021/12/21 05:49:05;;;;;;;25.50;10.30;;;;;;;5.99;49.20;102840.47;4976222;28;20034;-61
2021/12/21 05:51:30;;;;;;;20.45;9.40;;;;;;;5.95;49.09;102830.22;4993611;28;20037;-61
2021/12/21 05:53:55;;;;;;;23.88;9.50;;;;;;;5.99;49.33;102840.47;4993331;28;20054;-60
2021/12/21 05:56:21;;;;;;;22.67;9.63;;;;;;;5.91;49.92;102835.28;4993078;28;20039;-60
2021/12/21 05:58:47;;;;;;;20.95;10.20;;;;;;;5.97;49.52;102826.25;4960099;28;20069;-62
2021/12/21 06:01:12;;;;;;;18.17;9.50;;;;;;;5.90;50.27;102830.91;4992960;28;20111;-63
2021/12/21 06:03:38;;;;;;;21.70;9.45;;;;;;;5.95;49.98;102833.78;4976219;28;20030;-60
2021/12/21 06:06:03;;;;;;;19.48;8.98;;;;;;;6.01;49.74;102834.00;4959653;28;20034;-63
2021/12/21 06:08:29;;;;;;;22.88;9.00;;;;;;;6.06;49.56;102842.31;4976053;28;20022;-60
2021/12/21 06:10:55;;;;;;;18.88;8.55;;;;;;;6.11;49.07;102843.31;4992867;28;20030;-62
2021/12/21 06:25:16;;;;;;;20.40;10.30;;;;;;;5.80;49.65;102827.84;4933100;29;20032;-60
2021/12/21 06:27:04;;;;;;;22.63;10.77;;;;;;;5.85;49.20;102829.91;4976131;28;20512;-64
2021/12/21 06:29:29;;;;;;;22.85;10.10;;;;;;;5.64;49.50;102826.50;4992332;28;20026;-62
2021/12/21 06:31:55;;;;;;;20.23;9.77;;;;;;;5.16;50.84;102841.47;4992688;28;20030;-64
2021/12/21 06:34:21;;;;;;;21.58;9.25;;;;;;;4.94;51.00;102837.41;4992250;28;20027;-62
2021/12/21 06:36:47;;;;;;;21.10;9.40;;;;;;;5.12;51.10;102840.22;4992840;28;20038;-61
2021/12/21 06:39:12;;;;;;;24.55;9.70;;;;;;;5.22;51.11;102840.63;4992053;28;20062;-64
2021/12/21 06:41:38;;;;;;;21.55;9.02;;;;;;;5.29;51.21;102842.47;4992624;28;20054;-63
2021/12/21 06:44:05;;;;;;;22.45;9.40;;;;;;;5.37;50.96;102843.03;4975559;28;20057;-63
2021/12/21 06:52:01;;;;;;;21.80;10.07;;;;;;;5.36;50.83;102840.50;4992428;28;20080;-61
2021/12/21 06:54:26;;;;;;;26.33;11.13;;;;;;;5.23;51.28;102836.84;4992086;28;20018;-61
2021/12/21 06:56:52;;;;;;;24.27;10.55;;;;;;;4.95;52.66;102836.34;4975209;28;20046;-61
2021/12/21 06:59:17;;;;;;;19.75;9.73;;;;;;;4.62;53.45;102837.34;4991933;28;20037;-64
2021/12/21 07:01:43;;;;;;;24.70;10.15;;;;;;;5.10;52.37;102842.34;4975149;28;20042;-61
2021/12/21 07:04:11;;;;;;;22.85;10.13;;;;;;;5.26;51.19;102838.28;4992147;28;20027;-63
2021/12/21 07:06:40;;;;;;;21.08;9.57;;;;;;;5.27;50.99;102826.34;4992144;28;20030;-60
2021/12/21 07:09:18;;;;;;;20.17;9.82;;;;;;;4.74;52.43;102827.47;4992129;28;20094;-60
2021/12/21 07:11:46;;;;;;;20.63;9.25;;;;;;;5.03;51.35;102838.84;4992100;28;20027;-64
2021/12/21 07:19:44;;;;;;;24.25;9.80;;;;;;;5.20;51.10;102852.75;4991996;28;20033;-62
2021/12/21 07:22:09;;;;;;;20.88;10.43;;;;;;;5.17;50.78;102843.16;4974827;28;20067;-61
2021/12/21 07:24:35;;;;;;;23.88;9.60;;;;;;;5.17;51.23;102848.59;4974669;28;20045;-62
2021/12/21 07:27:01;;;;;;;22.70;10.05;;;;;;;5.15;50.84;102845.22;4991913;28;20045;-62
2021/12/21 07:29:27;;;;;;;21.58;10.73;;;;;;;5.21;50.81;102841.66;4974966;28;20046;-62
2021/12/21 07:31:52;;;;;;;18.30;9.48;;;;;;;5.16;50.50;102855.06;4978086;28;20027;-61
2021/12/21 07:34:18;;;;;;;27.90;9.77;;;;;;;5.14;50.59;102853.59;4996186;28;20046;-63
2021/12/21 07:36:44;;;;;;;22.65;10.40;;;;;;;5.29;50.71;102853.34;4989075;28;20039;-61
2021/12/21 07:39:13;;;;;;;24.48;11.55;;;;;;;5.30;50.23;102852.25;4986659;28;20067;-64
2021/12/21 07:41:38;;;;;;;24.38;10.85;;;;;;;5.24;50.88;102854.81;4991645;28;20022;-62
2021/12/21 07:44:04;;;;;;;22.60;11.00;;;;;;;5.38;50.25;102852.84;5000525;28;20046;-60
2021/12/21 07:46:29;;;;;;;25.60;11.90;;;;;;;4.96;50.91;102844.28;4990918;28;20057;-63
2021/12/21 07:48:55;;;;;;;20.23;9.98;;;;;;;5.16;50.61;102837.94;4978162;28;20031;-60
2021/12/21 07:51:20;;;;;;;21.65;10.80;;;;;;;5.13;51.02;102838.38;5003504;28;20034;-61
2021/12/21 07:53:47;;;;;;;25.60;10.82;;;;;;;5.24;50.81;102837.66;5006276;28;20030;-60
2021/12/21 07:56:16;;;;;;;27.35;12.18;;;;;;;5.35;50.38;102847.03;4970415;28;20046;-61
2021/12/21 07:58:43;;;;;;;28.17;11.18;;;;;;;5.29;50.85;102847.91;5011160;28;20022;-62
2021/12/21 08:01:08;;;;;;;;;;;;;;;5.44;49.75;102853.84;5003152;28;20033;-61
2021/12/21 08:03:35;;;;;;;24.90;11.00;;;;;;;5.26;50.06;102855.44;4986921;28;19918;-62
2021/12/21 08:06:06;;;;;;;24.00;11.10;;;;;;;5.32;50.80;102859.16;4986618;28;20038;-62
2021/12/21 08:08:31;;;;;;;21.10;11.02;;;;;;;5.33;50.04;102860.84;5010065;28;20033;-59
2021/12/21 08:13:43;;;;;;;27.80;11.63;;;;;;;5.20;50.79;102861.75;5008513;28;20038;-61
2021/12/21 08:16:09;;;;;;;23.02;10.80;;;;;;;5.37;50.53;102864.78;5003894;28;20041;-60
2021/12/21 08:18:35;;;;;;;22.67;11.70;;;;;;;5.39;50.48;102876.28;4998972;28;20050;-59
2021/12/21 08:21:00;;;;;;;26.35;10.63;;;;;;;5.43;50.05;102865.81;5008861;28;20042;-65
2021/12/21 08:23:26;;;;;;;25.83;11.10;;;;;;;5.45;50.77;102869.13;5004771;28;20135;-62
2021/12/21 08:25:54;;;;;;;26.90;11.43;;;;;;;5.62;50.46;102873.00;4986152;28;20062;-63
2021/12/21 08:28:19;;;;;;;24.40;11.05;;;;;;;5.73;50.34;102884.25;4991599;28;20037;-61
2021/12/21 08:30:45;;;;;;;26.88;11.30;;;;;;;5.62;50.99;102893.94;5010926;28;20057;-62
2021/12/21 08:33:10;;;;;;;32.33;12.05;;;;;;;5.47;51.13;102896.13;4976869;28;20030;-60
2021/12/21 08:35:36;;;;;;;24.38;11.10;;;;;;;5.65;50.47;102896.22;5006970;28;20026;-62
2021/12/21 08:38:07;;;;;;;29.05;12.52;;;;;;;5.64;51.28;102892.66;5006189;28;20094;-62
2021/12/21 08:40:40;;;;;;;23.10;10.88;;;;;;;6.01;50.00;102904.78;4987501;28;20087;-64
2021/12/21 08:43:07;;;;;;;27.08;12.65;;;;;;;6.02;50.07;102892.84;4976264;28;20033;-61
2021/12/21 08:45:34;;;;;;;;;;;;;;;6.49;49.22;102894.09;4996970;28;20026;-62
2021/12/21 08:48:00;;;;;;;;;;;;;;;6.49;49.74;102894.09;5002016;28;19906;-62
2021/12/21 08:50:26;;;;;;;23.42;11.55;;;;;;;6.47;49.71;102889.91;4977019;28;19942;-61
2021/12/21 08:52:51;;;;;;;23.42;11.77;;;;;;;6.48;49.80;102892.41;4977189;28;20035;-62
2021/12/21 08:55:18;;;;;;;33.88;13.45;;;;;;;6.40;50.89;102902.78;4977321;28;20542;-63
2021/12/21 08:57:43;;;;;;;44.65;21.10;;;;;;;6.12;51.66;102890.44;4976724;28;20033;-64
2021/12/21 09:00:09;;;;;;;30.63;14.68;;;;;;;6.39;51.25;102882.84;4994592;28;20022;-63
2021/12/21 09:02:37;;;;;;;37.50;17.15;;;;;;;6.39;51.41;102871.94;4993977;28;20046;-64
2021/12/21 09:05:12;;;;;;;63.92;27.73;;;;;;;6.53;51.16;102873.47;4976995;28;20038;-61
2021/12/21 09:07:39;;;;;;;99.60;40.33;;;;;;;6.86;51.00;102872.28;4976773;28;20033;-62
2021/12/21 09:10:07;;;;;;;125.20;54.58;;;;;;;7.08;50.44;102880.81;4994067;28;20054;-62
2021/12/21 09:12:35;;;;;;;123.53;53.33;;;;;;;7.08;50.35;102886.28;4993553;28;20037;-62
2021/12/21 09:15:00;;;;;;;51.75;27.33;;;;;;;6.97;50.48;102878.84;4976800;28;20046;-64
2021/12/21 09:17:28;;;;;;;35.22;17.83;;;;;;;6.80;51.67;102889.53;4960789;28;20027;-65
2021/12/21 09:19:53;;;;;;;28.17;14.75;;;;;;;7.10;51.23;102890.66;4944877;28;20045;-64
2021/12/21 09:22:19;;;;;;;32.92;14.40;;;;;;;7.36;50.57;102881.28;4993740;28;20079;-64
2021/12/21 09:24:44;;;;;;;29.38;13.02;;;;;;;7.25;50.16;102875.56;4993203;28;20043;-63
2021/12/21 09:27:11;;;;;;;25.23;12.70;;;;;;;6.85;52.04;102886.13;4993703;28;20091;-61
2021/12/21 09:29:38;;;;;;;;;;;;;;;7.18;51.25;102885.72;4977097;28;20022;-61
2021/12/21 09:32:03;;;;;;;21.90;11.87;;;;;;;7.29;51.07;102881.38;4980796;28;19921;-63
2021/12/21 09:34:29;;;;;;;25.10;12.35;;;;;;;6.89;51.42;102874.53;4965106;28;20289;-62
2021/12/21 09:36:54;;;;;;;24.30;11.50;;;;;;;6.62;51.80;102879.47;4992537;28;20046;-64
2021/12/21 09:39:20;;;;;;;19.38;10.98;;;;;;;6.69;52.06;102871.22;4968079;28;20062;-64
2021/12/21 09:41:45;;;;;;;25.85;11.52;;;;;;;7.02;51.30;102865.34;4980491;28;20098;-63
2021/12/21 09:44:11;;;;;;;22.77;10.93;;;;;;;6.78;52.21;102869.84;4971115;28;20026;-63
2021/12/21 09:46:37;;;;;;;23.98;12.35;;;;;;;6.96;51.92;102876.38;5003983;28;20038;-64
2021/12/21 09:49:03;;;;;;;29.08;12.15;;;;;;;6.95;51.27;102864.63;5004197;28;20057;-64
2021/12/21 09:51:28;;;;;;;22.35;11.30;;;;;;;7.01;51.69;102862.88;4992407;28;20028;-64
2021/12/21 09:53:55;;;;;;;21.58;11.13;;;;;;;7.18;50.71;102866.63;5000981;28;20054;-62
2021/12/21 09:56:22;;;;;;;;;;;;;;;7.86;50.10;102852.78;4996709;28;20027;-61
2021/12/21 09:58:47;;;;;;;26.02;11.48;;;;;;;7.65;50.40;102856.91;5003665;28;19986;-64
2021/12/21 10:01:13;;;;;;;24.83;12.27;;;;;;;8.31;49.24;102860.44;5004346;28;20030;-63
2021/12/21 10:03:38;;;;;;;26.13;11.55;;;;;;;8.57;49.06;102859.13;4984123;28;20091;-64
2021/12/21 10:06:10;;;;;;;24.63;11.13;;;;;;;8.73;47.34;102868.47;4985802;28;20040;-62
2021/12/21 10:08:36;;;;;;;21.52;11.93;;;;;;;8.35;48.15;102878.84;5005869;28;20031;-62
2021/12/21 10:11:04;;;;;;;26.45;11.35;;;;;;;8.40;47.30;102878.13;5005569;28;20030;-62
2021/12/21 10:13:33;;;;;;;24.67;11.18;;;;;;;7.99;49.48;102877.16;4982688;28;20026;-61
2021/12/21 10:16:02;;;;;;;26.15;11.38;;;;;;;8.36;49.12;102879.66;4967396;28;20046;-64
2021/12/21 10:18:38;;;;;;;26.35;12.82;;;;;;;8.99;47.86;102867.09;5000866;28;20029;-63
2021/12/21 10:21:06;;;;;;;26.13;11.75;;;;;;;9.10;47.78;102872.78;5001032;28;20054;-62
2021/12/21 10:23:36;;;;;;;24.73;12.90;;;;;;;9.43;47.41;102875.63;4979651;28;20050;-62
2021/12/21 10:26:18;;;;;;;21.98;13.18;;;;;;;9.64;46.87;102878.72;5007852;28;20037;-63
2021/12/21 10:28:47;;;;;;;25.23;11.88;;;;;;;9.99;46.15;102872.19;4994424;28;20089;-65
2021/12/21 10:31:21;;;;;;;26.75;11.70;;;;;;;9.34;46.14;102860.66;4997198;28;20027;-62
2021/12/21 10:33:47;;;;;;;24.33;11.52;;;;;;;9.12;46.72;102849.56;5004129;28;20057;-62
2021/12/21 10:36:14;;;;;;;26.65;12.32;;;;;;;9.23;46.50;102847.88;4996558;28;20042;-63
2021/12/21 10:38:51;;;;;;;23.23;11.05;;;;;;;9.51;45.64;102841.50;5003854;28;20038;-65
2021/12/21 10:41:27;;;;;;;19.77;10.95;;;;;;;9.55;45.52;102826.25;4988945;28;20037;-62
2021/12/21 10:44:05;;;;;;;26.40;13.15;;;;;;;9.90;45.46;102822.44;5005584;28;20030;-62
2021/12/21 10:46:33;;;;;;;23.70;11.73;;;;;;;9.87;45.12;102822.94;4996923;28;20034;-64
2021/12/21 10:49:15;;;;;;;19.77;10.75;;;;;;;10.43;44.59;102824.88;5011444;28;20034;-61
2021/12/21 10:52:04;;;;;;;23.05;12.63;;;;;;;10.79;44.33;102822.59;5011669;28;20034;-63
2021/12/21 10:54:43;;;;;;;22.48;11.73;;;;;;;10.64;43.94;102824.06;5011534;28;20026;-62
2021/12/21 10:57:21;;;;;;;22.73;10.73;;;;;;;11.07;43.38;102827.84;4995557;28;20046;-65
2021/12/21 10:59:50;;;;;;;23.13;10.55;;;;;;;11.24;42.48;102816.75;5002742;28;20035;-63
2021/12/21 11:02:17;;;;;;;20.48;10.68;;;;;;;11.35;42.56;102820.44;5001789;28;20030;-64
2021/12/21 11:04:44;;;;;;;;;;;;;;;10.83;42.60;102820.97;4998035;28;20033;-65
2021/12/21 11:10:01;;;;;;;22.30;9.90;;;;;;;10.89;42.03;102828.19;4998116;28;20042;-63
2021/12/21 11:12:28;;;;;;;20.55;9.75;;;;;;;11.14;41.45;102824.09;4996962;28;20027;-63
2021/12/21 11:14:57;;;;;;;23.38;10.18;;;;;;;11.02;41.10;102822.31;4998124;28;20037;-64
2021/12/21 11:17:23;;;;;;;18.50;9.88;;;;;;;10.90;41.55;102816.13;5006838;28;20026;-64
2021/12/21 11:19:52;;;;;;;23.80;10.05;;;;;;;11.21;41.24;102813.72;4987796;28;20077;-63
2021/12/21 11:22:21;;;;;;;24.30;10.32;;;;;;;11.14;40.75;102810.34;5001994;28;20058;-63
2021/12/21 11:24:48;;;;;;;18.15;8.88;;;;;;;10.39;40.80;102802.63;4992284;28;20031;-63
2021/12/21 11:27:15;;;;;;;22.38;10.20;;;;;;;10.54;41.30;102812.97;5004163;28;20082;-62
2021/12/21 11:29:42;;;;;;;19.85;9.57;;;;;;;10.27;41.40;102802.69;4996878;28;20022;-61
2021/12/21 11:32:09;;;;;;;19.50;9.00;;;;;;;10.49;42.31;102808.22;4971127;28;20103;-63
2021/12/21 11:34:47;;;;;;;22.95;9.82;;;;;;;10.91;40.55;102811.47;5003410;28;20050;-62
2021/12/21 11:37:21;;;;;;;18.75;10.10;;;;;;;11.39;39.99;102805.09;4996666;28;20030;-65
2021/12/21 11:39:47;;;;;;;18.80;9.13;;;;;;;10.55;40.72;102800.91;5001543;28;20115;-63
2021/12/21 11:42:34;;;;;;;16.35;9.05;;;;;;;10.56;40.92;102794.31;4978424;28;20027;-61
2021/12/21 11:45:04;;;;;;;16.35;9.60;;;;;;;10.71;41.38;102793.69;5002967;28;20077;-63
2021/12/21 11:47:39;;;;;;;19.33;9.38;;;;;;;10.31;41.96;102779.19;4998390;28;20109;-62
2021/12/21 11:50:08;;;;;;;24.05;9.88;;;;;;;10.44;41.92;102777.19;4980234;28;20455;-62
2021/12/21 11:52:54;;;;;;;17.83;9.55;;;;;;;10.34;42.07;102772.41;5000100;28;20118;-63
2021/12/21 11:55:25;;;;;;;17.88;9.32;;;;;;;9.63;42.94;102768.34;4999480;28;20022;-62
2021/12/21 11:57:54;;;;;;;17.65;9.15;;;;;;;9.78;42.62;102769.66;4998212;28;20023;-62
2021/12/21 12:00:26;;;;;;;15.65;9.07;;;;;;;10.55;41.61;102778.97;4997813;28;20022;-62
2021/12/21 12:02:54;;;;;;;22.02;9.63;;;;;;;10.71;41.44;102772.56;4985079;28;20023;-63
2021/12/21 12:05:23;;;;;;;15.63;8.23;;;;;;;10.29;42.05;102777.78;4987550;28;20042;-63
2021/12/21 12:08:10;;;;;;;17.63;8.32;;;;;;;10.63;40.75;102775.78;4987777;28;20656;-64
2021/12/21 12:10:58;;;;;;;16.10;8.20;;;;;;;10.87;40.45;102775.50;5000776;28;20118;-63
2021/12/21 12:13:31;;;;;;;20.33;7.88;;;;;;;10.56;40.17;102775.13;5001620;28;20022;-62
2021/12/21 12:15:59;;;;;;;16.27;7.10;;;;;;;10.62;40.13;102757.66;4996169;28;20033;-63
2021/12/21 12:18:31;;;;;;;12.80;6.82;;;;;;;10.57;39.37;102771.31;4994363;28;20078;-66
2021/12/21 12:20:56;;;;;;;16.52;7.78;;;;;;;10.71;39.42;102758.03;5001976;28;20026;-64
2021/12/21 12:23:22;;;;;;;14.90;8.13;;;;;;;10.99;40.00;102754.22;4988260;28;20054;-61
2021/12/21 12:25:51;;;;;;;13.60;7.13;;;;;;;11.10;39.56;102762.53;4991300;28;20030;-63
2021/12/21 12:28:22;;;;;;;17.50;7.72;;;;;;;10.90;39.97;102753.03;5005331;28;20053;-64
2021/12/21 12:30:49;;;;;;;14.57;7.13;;;;;;;10.30;40.08;102755.59;4993502;28;20053;-62
2021/12/21 12:33:14;;;;;;;15.60;6.85;;;;;;;9.15;41.05;102756.03;4985288;28;20034;-62
2021/12/21 12:35:42;;;;;;;12.77;6.68;;;;;;;9.41;40.91;102745.53;4991047;28;20038;-62
2021/12/21 12:38:18;;;;;;;15.48;7.38;;;;;;;10.11;40.46;102743.28;5010366;28;20026;-64
2021/12/21 12:40:56;;;;;;;15.10;6.57;;;;;;;9.58;40.86;102749.09;5011027;28;20033;-65
2021/12/21 12:43:27;;;;;;;13.65;6.93;;;;;;;9.69;40.88;102749.25;4984926;28;20030;-63